Etusivu
METAR-TAF:

METAR-TAF

Lentoasemat :

Whiteside County Airport (Jos. H. Bittorf Field)

Sterling / Rock Falls, Illinois, Yhdysvallat

Leveyspiiri: 41-45N, Pituuspiiri: 089-40W, korkeus merenpinnasta: 197 m

Tämänhetkinen sää

Tämä raportti tehtiin 47 minuuttia sitten, kello 19.56 UTC
Tuuli 12 kn pohjoisesta
Lämpötila -1°C
Kosteus 64%
Ilmanpaine 1020 hPa
Näkyvyys: 16.1 km
Pilvistä 3300 ft:n korkeudessa

METAR: KSQI 261956Z 35012KT 10SM OVC033 M01/M07 A3013 RMK AO2 UPB38E49 SLP070 P0000 T10061067 FZRANO

Aika: 14:43 (20:43 UTC)


TAF: puuttuu

Säähavainnot ja -ennusteet yli 4000 lentoasemalta (METAR- ja TAF-raportit).

Käytössä olevat sääasemat on merkitty karttaan keltaisilla ja punaisilla pisteillä.

Aseta hiiri pisteen päälle nähdäksesi sääaseman nimen.

Klikkaa sitten nähdäksesi säähavainnot ja -ennusteet.

Kartan vaihtaminen: klikkaa mustalla rastilla varustettuja vihreitä pisteitä, niin voit zoomata sisään; viivalla varustettua vihreää pistettä, niin voit zoomata ulos tai vihreitä nuolia, niin pääset viereisille kartoille.


METAR-TAF: